CYTE

Details ICAO CYTE (YTE)
Name Cape Dorset
Region Canada
Timezone America/Iqaluit (UTC-5.0)
Plans Departing 8
Arriving 9
Stats Elevation 164 ft / 50 m (AMSL)
Location 64.230235° -76.524873°
Runways 1
Magnetic Variation 24.629° W
Sunrise 2017-12-15 14:57:49 UTC / 2017-12-15 09:57:49 Local
Sunset 2017-12-15 19:07:41 UTC / 2017-12-15 14:07:41 Local
Advertisement - Login to hide

Runways

ID Width Length Bearing (true) Bearing (mag) Surface Threshold Offset Overrun Length
13T 98 ft / 30 m 3,973 ft / 1,211 m 127.39° 152.02° Gravel 0 ft / 0 m 0 ft / 0 m
31T 98 ft / 30 m 3,973 ft / 1,211 m 307.41° 332.04° Gravel 0 ft / 0 m 0 ft / 0 m

Map

Weather


0- 5 10 15 20 25 30 35+ Temperature / ° C

Clouds and Precipitation
Forecast for 2017-12-16 00:00 UTC. Updated an hour ago

Ground ~20,000 ft ~40,000 ft Winds

METAR

CYTE 152000Z VRB07KT 15SM -SG VCBLSN FEW065 OVC090 M13/M16 A2935 RMK SC1AC7 -SG INTNT SF TR VCBLSN N SLP945

TAF

TAF TAF CYTE 151846Z 1519/1607 34015G28KT P6SM SCT060 BKN150 TEMPO 1519/1602 3SM IC BLSN BKN080 FM160200 35012G22KT P6SM -SN SCT025 BKN080 TEMPO 1602/1607 21/2SM -SN BLSN BKN020 RMK NXT FCST BY 160100Z

Frequencies

Unicom 122.10 MHz MULTICOM
Warning: Do not use this data for real-world aviation or navigation. No guarantee of current accuracy is given.